LIMP METAR and TAF | Updated Today

LIMP METAR

Parma Airport

Observation time: 53 min. ago

LIMP 292050Z 15004KT CAVOK 16/09 Q1000

Need help? Read our tutorial on how to read METARs or read the parsed version below.

Parma Airport (LIMP) METAR

  • Weather conditions on Thu, 29 Sep 2022 20:50:00 +0000 (53 min. ago):
  • Present conditions: Dry
  • Clouds: Clear skies
  • Visibility: Greater than 10 km
  • Wind: 150 degrees at 4 knots
  • Temperature: 16 celsius
  • Dew point: 9 celsius
  • Pressure: 1000 millibars
  • Remarks: None


Useful to know...

LIMP TAF

Parma Airport

TAF LIMP 291700Z 2918/3018 18010KT 9999 FEW025 SCT050 BECMG 3000/3002 09008KT TEMPO 3007/3018 SHRA
Observation time: 4:43 hr. ago
Need help? Read our tutorial on how to read TAFs or read the parsed version below.

Parsed version of TAF for Parma Airport (LIMP)

  • From 29 September at 18:00 UTC, to day 30 of the month at 18:00 UTC
  • Clouds: A few at 762 meters; scattered at 1524 meters
  • Visibility: Greater than 10 km
  • Wind: 180 degrees at 10
  • Expected to arise soon, from 30 September at 00:00 UTC, to day 30 of the month at 02:00 UTC
  • Wind: 90 degrees at 8
  • Expected to arise temporarily, from 30 September at 07:00 UTC, to day 30 of the month at 18:00 UTC